createdAt,value
2024-02-21T00:00:31.091Z,7.72
2024-02-21T00:03:01.078Z,7.68
2024-02-21T00:05:27.969Z,7.68
2024-02-21T00:07:54.564Z,7.65
2024-02-21T00:10:21.130Z,7.58
2024-02-21T00:12:47.612Z,7.69
2024-02-21T00:15:14.019Z,7.70
2024-02-21T00:17:40.762Z,7.71
2024-02-21T00:20:08.660Z,7.63
2024-02-21T00:22:35.302Z,7.69
2024-02-21T00:25:01.808Z,7.63
2024-02-21T00:27:28.727Z,7.73
2024-02-21T00:29:55.150Z,7.64
2024-02-21T00:32:21.858Z,7.68
2024-02-21T00:34:48.309Z,7.61
2024-02-21T00:37:14.839Z,7.61
2024-02-21T00:39:41.375Z,7.60
2024-02-21T00:42:08.590Z,7.64
2024-02-21T00:44:35.850Z,7.63
2024-02-21T00:47:02.353Z,7.68
2024-02-21T00:49:28.955Z,7.68
2024-02-21T00:51:55.361Z,7.73
2024-02-21T00:54:21.781Z,7.73
2024-02-21T00:56:48.208Z,7.70
2024-02-21T00:59:14.679Z,7.69
2024-02-21T01:01:43.960Z,7.75
2024-02-21T01:04:11.551Z,7.71
2024-02-21T01:06:38.088Z,7.67
2024-02-21T01:09:04.968Z,7.77
2024-02-21T01:11:31.472Z,7.70
2024-02-21T01:13:57.963Z,7.73
2024-02-21T01:16:24.502Z,7.72
2024-02-21T01:18:51.363Z,7.70
2024-02-21T01:21:17.843Z,7.67
2024-02-21T01:23:44.317Z,7.72
2024-02-21T01:26:14.187Z,7.64
2024-02-21T01:28:41.853Z,7.67
2024-02-21T01:31:08.934Z,7.61
2024-02-21T01:33:40.022Z,7.72
2024-02-21T01:36:10.015Z,7.79
2024-02-21T01:38:36.649Z,7.79
2024-02-21T01:41:03.569Z,7.74
2024-02-21T01:43:30.074Z,7.71
2024-02-21T01:45:58.122Z,7.76
2024-02-21T01:48:24.946Z,7.80
2024-02-21T01:50:52.925Z,7.77
2024-02-21T01:53:24.900Z,7.73
2024-02-21T01:55:51.352Z,7.81
2024-02-21T01:58:19.648Z,7.86
2024-02-21T02:00:48.993Z,7.82
2024-02-21T02:03:17.958Z,7.76
2024-02-21T02:05:45.628Z,7.83
2024-02-21T02:08:12.251Z,7.89
2024-02-21T02:10:40.416Z,7.82
2024-02-21T02:13:06.927Z,7.81
2024-02-21T02:15:43.149Z,7.85
2024-02-21T02:18:10.746Z,7.80
2024-02-21T02:20:37.717Z,7.87
2024-02-21T02:23:21.488Z,7.86
2024-02-21T02:25:53.065Z,7.82
2024-02-21T02:28:21.615Z,7.84
2024-02-21T02:30:48.676Z,7.78
2024-02-21T02:33:15.504Z,7.85
2024-02-21T02:35:42.164Z,7.82
2024-02-21T02:38:08.865Z,7.77
2024-02-21T02:40:35.904Z,7.81
2024-02-21T02:43:02.822Z,7.87
2024-02-21T02:45:29.477Z,7.81
2024-02-21T02:47:57.937Z,7.83
2024-02-21T02:50:25.641Z,7.83
2024-02-21T02:52:52.166Z,7.76
2024-02-21T02:55:19.018Z,7.93
2024-02-21T02:57:46.070Z,7.85
2024-02-21T03:00:13.977Z,7.83
2024-02-21T03:02:41.488Z,7.82
2024-02-21T03:05:16.880Z,7.83
2024-02-21T03:07:44.733Z,7.88
2024-02-21T03:10:12.297Z,7.79
2024-02-21T03:12:39.411Z,7.92
2024-02-21T03:15:06.839Z,7.90
2024-02-21T03:17:35.502Z,7.83
2024-02-21T03:20:11.034Z,7.87
2024-02-21T03:22:38.776Z,7.80
2024-02-21T03:25:06.790Z,7.87
2024-02-21T03:27:33.217Z,7.82
2024-02-21T03:29:59.679Z,7.79
2024-02-21T03:32:26.144Z,7.85
2024-02-21T03:34:52.636Z,7.78
2024-02-21T03:37:19.657Z,7.81
2024-02-21T03:39:46.491Z,7.89
2024-02-21T03:42:13.066Z,7.84
2024-02-21T03:44:40.178Z,7.74
2024-02-21T03:47:06.780Z,7.80
2024-02-21T03:49:33.263Z,7.84
2024-02-21T03:51:59.764Z,7.87
2024-02-21T03:54:26.154Z,7.81
2024-02-21T03:56:52.545Z,7.80
2024-02-21T03:59:19.008Z,7.76
2024-02-21T04:01:45.710Z,7.79
2024-02-21T04:04:12.414Z,7.79
2024-02-21T04:06:47.835Z,7.84
2024-02-21T04:09:14.309Z,7.83
2024-02-21T04:11:40.862Z,7.93
2024-02-21T04:14:07.405Z,7.91
2024-02-21T04:16:35.209Z,7.92
2024-02-21T04:19:03.104Z,7.90
2024-02-21T04:21:29.668Z,7.88
2024-02-21T04:23:56.496Z,7.95
2024-02-21T04:26:22.921Z,7.85
2024-02-21T04:28:49.369Z,7.85
2024-02-21T04:31:16.288Z,7.88
2024-02-21T04:33:43.080Z,7.84
2024-02-21T04:36:10.390Z,7.77
2024-02-21T04:38:36.884Z,7.84
2024-02-21T04:41:04.017Z,7.82
2024-02-21T04:43:30.609Z,7.81
2024-02-21T04:45:57.054Z,7.81
2024-02-21T04:48:23.502Z,7.83
2024-02-21T04:50:50.121Z,7.75
2024-02-21T04:53:17.111Z,7.70
2024-02-21T04:55:43.674Z,7.68
2024-02-21T04:58:10.332Z,7.74
2024-02-21T05:00:36.780Z,7.71
2024-02-21T05:03:03.848Z,7.71
2024-02-21T05:05:30.643Z,7.74
2024-02-21T05:07:57.269Z,7.65
2024-02-21T05:10:23.835Z,7.76
2024-02-21T05:12:50.842Z,7.64
2024-02-21T05:15:17.295Z,7.77
2024-02-21T05:17:44.662Z,7.70
2024-02-21T05:20:11.838Z,7.66
2024-02-21T05:22:38.577Z,7.61
2024-02-21T05:25:05.424Z,7.81
2024-02-21T05:27:31.886Z,7.74
2024-02-21T05:29:59.424Z,7.75
2024-02-21T05:32:27.271Z,7.71
2024-02-21T05:34:53.755Z,7.73
2024-02-21T05:37:20.197Z,7.76
2024-02-21T05:39:46.758Z,7.66
2024-02-21T05:42:13.336Z,7.70
2024-02-21T05:44:39.903Z,7.68
2024-02-21T05:47:10.949Z,7.73
2024-02-21T05:49:38.257Z,7.73
2024-02-21T05:52:07.014Z,7.83
2024-02-21T05:54:33.810Z,7.74
2024-02-21T05:57:00.462Z,7.69
2024-02-21T05:59:27.007Z,7.63
2024-02-21T06:01:59.899Z,7.63
2024-02-21T06:04:26.534Z,7.71
2024-02-21T06:06:53.040Z,7.70
2024-02-21T06:09:19.533Z,7.72
2024-02-21T06:11:47.474Z,7.65
2024-02-21T06:14:14.299Z,7.68
2024-02-21T06:16:41.064Z,7.67
2024-02-21T06:19:10.127Z,7.58
2024-02-21T06:21:37.823Z,7.59
2024-02-21T06:24:04.954Z,7.69
2024-02-21T06:26:31.401Z,7.64
2024-02-21T06:28:58.447Z,7.65
2024-02-21T06:31:25.101Z,7.70
2024-02-21T06:33:51.744Z,7.61
2024-02-21T06:36:18.274Z,7.60
2024-02-21T06:38:44.946Z,7.62
2024-02-21T06:41:19.698Z,7.59
2024-02-21T06:43:50.159Z,7.68
2024-02-21T06:46:27.382Z,7.60
2024-02-21T06:48:54.521Z,7.58
2024-02-21T06:51:21.123Z,7.57
2024-02-21T06:53:47.620Z,7.57
2024-02-21T06:56:14.439Z,7.57
2024-02-21T06:58:41.509Z,7.53
2024-02-21T07:01:08.867Z,7.63
2024-02-21T07:03:35.456Z,7.58
2024-02-21T07:06:02.454Z,7.61
2024-02-21T07:08:29.107Z,7.58
2024-02-21T07:10:55.722Z,7.57
2024-02-21T07:13:23.749Z,7.50
2024-02-21T07:15:50.349Z,7.55
2024-02-21T07:18:17.323Z,7.55
2024-02-21T07:20:43.802Z,7.59
2024-02-21T07:23:10.531Z,7.59
2024-02-21T07:25:37.074Z,7.63
2024-02-21T07:28:04.111Z,7.57
2024-02-21T07:30:30.598Z,7.54
2024-02-21T07:32:57.052Z,7.59
2024-02-21T07:35:23.705Z,7.69
2024-02-21T07:37:50.361Z,7.66
2024-02-21T07:40:17.783Z,7.65
2024-02-21T07:42:46.937Z,7.54
2024-02-21T07:45:15.321Z,7.75
2024-02-21T07:47:41.927Z,7.63
2024-02-21T07:50:09.181Z,7.74
2024-02-21T07:52:35.880Z,7.81
2024-02-21T07:55:02.390Z,7.78
2024-02-21T07:57:29.058Z,7.83
2024-02-21T07:59:55.541Z,7.85
2024-02-21T08:02:22.011Z,7.86
2024-02-21T08:04:48.511Z,7.95
2024-02-21T08:07:15.086Z,8.02
2024-02-21T08:09:41.879Z,8.00
2024-02-21T08:12:08.714Z,8.01
2024-02-21T08:14:35.166Z,7.99
2024-02-21T08:17:02.818Z,8.02
2024-02-21T08:19:29.406Z,8.07
2024-02-21T08:21:55.904Z,8.06
2024-02-21T08:24:24.000Z,8.10
2024-02-21T08:26:50.506Z,8.15
2024-02-21T08:29:16.954Z,8.15
2024-02-21T08:31:43.543Z,8.22
2024-02-21T08:34:10.184Z,8.23
2024-02-21T08:36:37.246Z,8.20
2024-02-21T08:39:05.665Z,8.29
2024-02-21T08:41:46.734Z,8.30
2024-02-21T08:44:18.805Z,8.28
2024-02-21T08:46:45.448Z,8.38
2024-02-21T08:49:12.237Z,8.33
2024-02-21T08:51:39.195Z,8.35
2024-02-21T08:54:05.831Z,8.41
2024-02-21T08:56:32.484Z,8.44
2024-02-21T08:58:59.172Z,8.40
2024-02-21T09:01:25.770Z,8.42
2024-02-21T09:03:54.936Z,8.51
2024-02-21T09:06:21.635Z,8.65
2024-02-21T09:08:48.201Z,8.59
2024-02-21T09:11:14.980Z,8.65
2024-02-21T09:13:41.802Z,8.65
2024-02-21T09:16:08.283Z,8.69
2024-02-21T09:18:34.760Z,8.68
2024-02-21T09:21:04.479Z,8.78
2024-02-21T09:23:32.556Z,8.70
2024-02-21T09:26:03.299Z,8.78
2024-02-21T09:28:29.921Z,8.74
2024-02-21T09:30:56.399Z,8.77
2024-02-21T09:33:30.577Z,8.79
2024-02-21T09:35:59.672Z,8.78
2024-02-21T09:38:26.278Z,8.84
2024-02-21T09:41:01.241Z,8.88
2024-02-21T09:43:28.845Z,8.90
2024-02-21T09:45:57.731Z,9.00
2024-02-21T09:48:42.068Z,9.01
2024-02-21T09:51:11.691Z,9.04
2024-02-21T09:53:41.740Z,9.12
2024-02-21T09:56:10.280Z,9.16
2024-02-21T09:58:38.581Z,9.14
2024-02-21T10:01:17.093Z,9.22
2024-02-21T10:03:52.278Z,9.24
2024-02-21T10:06:18.836Z,9.28
2024-02-21T10:08:53.133Z,9.35
2024-02-21T10:11:26.556Z,9.35
2024-02-21T10:14:05.356Z,9.48
2024-02-21T10:16:31.924Z,9.53
2024-02-21T10:18:58.436Z,9.56
2024-02-21T10:21:24.892Z,9.53
2024-02-21T10:23:52.000Z,9.62
2024-02-21T10:26:21.897Z,9.70
2024-02-21T10:28:49.794Z,9.72
2024-02-21T10:31:27.665Z,9.68
2024-02-21T10:34:04.932Z,9.61
2024-02-21T10:36:31.927Z,9.57
2024-02-21T10:38:58.640Z,9.55
2024-02-21T10:41:25.732Z,9.54
2024-02-21T10:43:55.193Z,9.62
2024-02-21T10:46:23.427Z,9.60
2024-02-21T10:49:08.591Z,9.70
2024-02-21T10:51:38.514Z,9.72
2024-02-21T10:54:23.870Z,9.74
2024-02-21T10:56:52.493Z,9.71
2024-02-21T10:59:19.331Z,9.82
2024-02-21T11:01:45.965Z,9.77
2024-02-21T11:04:15.530Z,9.82
2024-02-21T11:06:43.713Z,9.89
2024-02-21T11:09:12.518Z,9.72
2024-02-21T11:11:44.751Z,9.70
2024-02-21T11:14:18.507Z,9.72
2024-02-21T11:16:45.483Z,9.84
2024-02-21T11:19:26.752Z,9.81
2024-02-21T11:21:54.747Z,9.85
2024-02-21T11:24:33.705Z,9.79
2024-02-21T11:27:10.120Z,9.86
2024-02-21T11:29:46.313Z,9.87
2024-02-21T11:32:16.552Z,9.83
2024-02-21T11:34:55.008Z,9.83
2024-02-21T11:37:21.753Z,9.69
2024-02-21T11:39:51.467Z,9.72
2024-02-21T11:42:17.944Z,9.77
2024-02-21T11:44:44.476Z,9.87
2024-02-21T11:47:11.354Z,10.00
2024-02-21T11:49:42.702Z,9.97
2024-02-21T11:52:09.292Z,9.90
2024-02-21T11:54:35.955Z,9.95
2024-02-21T11:57:02.708Z,10.05
2024-02-21T11:59:33.093Z,10.15
2024-02-21T12:02:00.592Z,10.22
2024-02-21T12:04:27.266Z,10.29
2024-02-21T12:06:55.335Z,10.24
2024-02-21T12:09:23.876Z,10.34
2024-02-21T12:12:01.953Z,10.29
2024-02-21T12:14:30.283Z,10.27
2024-02-21T12:16:57.311Z,10.37
2024-02-21T12:19:23.783Z,10.28
2024-02-21T12:21:55.603Z,10.31
2024-02-21T12:24:26.441Z,10.32
2024-02-21T12:26:54.094Z,10.35
2024-02-21T12:29:21.655Z,10.47
2024-02-21T12:31:48.651Z,10.41
2024-02-21T12:34:16.503Z,10.57
2024-02-21T12:36:44.820Z,10.41
2024-02-21T12:39:12.210Z,10.34
2024-02-21T12:41:45.272Z,10.45
2024-02-21T12:44:15.492Z,10.42
2024-02-21T12:46:42.538Z,10.52
2024-02-21T12:49:09.328Z,10.41
2024-02-21T12:51:36.339Z,10.44
2024-02-21T12:54:04.056Z,10.33
2024-02-21T12:56:32.069Z,10.38
2024-02-21T12:58:59.070Z,10.46
2024-02-21T13:01:25.883Z,10.49
2024-02-21T13:03:52.419Z,10.57
2024-02-21T13:06:20.052Z,10.33
2024-02-21T13:08:47.147Z,10.37
2024-02-21T13:11:14.315Z,10.31
2024-02-21T13:13:41.121Z,10.32
2024-02-21T13:16:08.246Z,10.26
2024-02-21T13:18:39.006Z,10.35
2024-02-21T13:21:08.559Z,10.32
2024-02-21T13:23:35.027Z,10.21
2024-02-21T13:26:01.659Z,10.27
2024-02-21T13:28:28.767Z,10.38
2024-02-21T13:30:55.283Z,10.44
2024-02-21T13:33:21.873Z,10.36
2024-02-21T13:35:48.359Z,10.30
2024-02-21T13:38:15.445Z,10.45
2024-02-21T13:40:43.543Z,10.35
2024-02-21T13:43:11.807Z,10.44
2024-02-21T13:45:38.841Z,10.50
2024-02-21T13:48:07.501Z,10.40
2024-02-21T13:50:41.102Z,10.47
2024-02-21T13:53:07.564Z,10.56
2024-02-21T13:55:34.110Z,10.61
2024-02-21T13:58:00.768Z,10.64
2024-02-21T14:00:28.308Z,10.52
2024-02-21T14:02:55.580Z,10.38
2024-02-21T14:05:22.225Z,10.47
2024-02-21T14:07:48.884Z,10.47
2024-02-21T14:10:15.488Z,10.41
2024-02-21T14:12:42.149Z,10.33
2024-02-21T14:15:10.133Z,10.36
2024-02-21T14:17:36.653Z,10.47
2024-02-21T14:20:05.989Z,10.46
2024-02-21T14:22:32.498Z,10.37
2024-02-21T14:24:59.215Z,10.27
2024-02-21T14:27:25.668Z,10.25
2024-02-21T14:29:52.111Z,10.29
2024-02-21T14:32:18.642Z,10.26
2024-02-21T14:34:45.331Z,10.35
2024-02-21T14:37:11.867Z,10.26
2024-02-21T14:39:38.338Z,10.29
2024-02-21T14:42:05.004Z,10.21
2024-02-21T14:44:31.433Z,10.20
2024-02-21T14:46:57.929Z,10.25
2024-02-21T14:49:26.301Z,10.26
2024-02-21T14:51:53.437Z,10.18
2024-02-21T14:54:20.567Z,10.13
2024-02-21T14:56:47.810Z,10.13
2024-02-21T14:59:21.325Z,10.13
2024-02-21T15:01:52.556Z,10.16
2024-02-21T15:04:19.103Z,10.27
2024-02-21T15:06:46.377Z,10.27
2024-02-21T15:09:16.045Z,10.46
2024-02-21T15:11:44.164Z,10.24
2024-02-21T15:14:12.074Z,10.31
2024-02-21T15:16:38.859Z,10.25
2024-02-21T15:19:05.528Z,10.22
2024-02-21T15:21:32.013Z,10.23
2024-02-21T15:23:59.444Z,10.23
2024-02-21T15:26:25.886Z,10.19
2024-02-21T15:28:52.468Z,10.12
2024-02-21T15:31:25.485Z,10.18
2024-02-21T15:33:53.544Z,10.17
2024-02-21T15:36:20.455Z,10.04
2024-02-21T15:38:47.503Z,10.02
2024-02-21T15:41:15.410Z,10.02
2024-02-21T15:43:43.784Z,9.76
2024-02-21T15:46:13.456Z,9.72
2024-02-21T15:48:40.124Z,9.66
2024-02-21T15:51:07.492Z,9.69
2024-02-21T15:53:34.029Z,9.68
2024-02-21T15:56:00.630Z,9.64
2024-02-21T15:58:28.813Z,9.72
2024-02-21T16:00:55.393Z,9.51
2024-02-21T16:03:22.837Z,9.47
2024-02-21T16:05:50.021Z,9.40
2024-02-21T16:08:19.380Z,9.48
2024-02-21T16:10:46.087Z,9.42
2024-02-21T16:13:12.698Z,9.40
2024-02-21T16:15:39.359Z,9.35
2024-02-21T16:18:06.576Z,9.32
2024-02-21T16:20:33.292Z,9.25
2024-02-21T16:23:04.167Z,9.20
2024-02-21T16:25:30.871Z,9.06
2024-02-21T16:27:58.891Z,9.09
2024-02-21T16:30:25.500Z,9.04
2024-02-21T16:32:53.276Z,9.03
2024-02-21T16:35:20.115Z,8.95
2024-02-21T16:37:46.834Z,9.00
2024-02-21T16:40:13.325Z,8.92
2024-02-21T16:42:39.912Z,8.88
2024-02-21T16:45:06.824Z,8.93
2024-02-21T16:47:33.339Z,8.83
2024-02-21T16:49:59.960Z,8.78
2024-02-21T16:52:27.738Z,8.84
2024-02-21T16:54:54.162Z,8.83
2024-02-21T16:57:20.567Z,8.78
2024-02-21T16:59:47.644Z,8.76
2024-02-21T17:02:14.292Z,8.78
2024-02-21T17:04:40.990Z,8.76
2024-02-21T17:07:07.667Z,8.67
2024-02-21T17:09:34.486Z,8.62
2024-02-21T17:12:01.070Z,8.65
2024-02-21T17:14:27.607Z,8.60
2024-02-21T17:16:55.862Z,8.64
2024-02-21T17:19:22.620Z,8.76
2024-02-21T17:21:49.100Z,8.74
2024-02-21T17:24:15.584Z,8.74
2024-02-21T17:26:42.106Z,8.74
2024-02-21T17:29:09.673Z,8.86
2024-02-21T17:31:36.249Z,8.76
2024-02-21T17:34:02.780Z,8.86
2024-02-21T17:36:29.277Z,8.94
2024-02-21T17:38:55.714Z,8.82
2024-02-21T17:41:22.716Z,8.79
2024-02-21T17:43:49.832Z,8.92
2024-02-21T17:46:16.855Z,8.78
2024-02-21T17:48:43.392Z,8.73
2024-02-21T17:51:10.023Z,8.80
2024-02-21T17:53:36.646Z,8.75
2024-02-21T17:56:04.310Z,8.81
2024-02-21T17:58:31.600Z,8.84
2024-02-21T18:01:00.920Z,8.97
2024-02-21T18:03:30.094Z,8.81
2024-02-21T18:06:04.757Z,8.94
2024-02-21T18:08:32.145Z,8.86
2024-02-21T18:10:58.902Z,8.88
2024-02-21T18:13:25.608Z,8.96
2024-02-21T18:15:52.880Z,8.90
2024-02-21T18:18:19.366Z,8.83
2024-02-21T18:20:46.151Z,8.76
2024-02-21T18:23:12.937Z,8.86
2024-02-21T18:25:41.156Z,8.85
2024-02-21T18:28:08.018Z,8.87
2024-02-21T18:30:34.459Z,8.81
2024-02-21T18:33:03.311Z,8.75
2024-02-21T18:35:29.845Z,8.76
2024-02-21T18:37:56.951Z,8.84
2024-02-21T18:40:23.542Z,8.78
2024-02-21T18:42:50.164Z,8.81
2024-02-21T18:45:16.905Z,8.79
2024-02-21T18:47:44.448Z,8.75
2024-02-21T18:50:12.593Z,8.80
2024-02-21T18:52:39.210Z,8.84
2024-02-21T18:55:06.437Z,8.75
2024-02-21T18:57:34.538Z,8.82
2024-02-21T19:00:07.895Z,8.79
2024-02-21T19:02:34.616Z,8.81
2024-02-21T19:05:01.258Z,8.83
2024-02-21T19:07:29.396Z,8.76
2024-02-21T19:09:55.893Z,8.83
2024-02-21T19:12:22.318Z,8.78
2024-02-21T19:14:48.772Z,8.91
2024-02-21T19:17:15.225Z,8.87
2024-02-21T19:19:43.394Z,8.89
2024-02-21T19:22:10.012Z,8.92
2024-02-21T19:24:37.298Z,8.87
2024-02-21T19:27:04.230Z,8.86
2024-02-21T19:29:30.653Z,8.88
2024-02-21T19:31:57.813Z,8.92
2024-02-21T19:34:25.680Z,8.86
2024-02-21T19:36:52.142Z,9.01
2024-02-21T19:39:18.545Z,9.03
2024-02-21T19:41:46.601Z,8.89
2024-02-21T19:44:13.249Z,8.94
2024-02-21T19:46:40.005Z,8.98
2024-02-21T19:49:06.685Z,8.87
2024-02-21T19:51:33.161Z,8.82
2024-02-21T19:54:10.055Z,8.82
2024-02-21T19:56:46.326Z,8.81
2024-02-21T19:59:13.215Z,8.86
2024-02-21T20:01:42.818Z,8.75
2024-02-21T20:04:10.298Z,8.73
2024-02-21T20:06:36.769Z,8.81
2024-02-21T20:09:06.738Z,8.90
2024-02-21T20:11:33.758Z,8.94
2024-02-21T20:14:02.144Z,8.97
2024-02-21T20:16:30.436Z,8.84
2024-02-21T20:18:58.436Z,8.80
2024-02-21T20:21:24.972Z,8.83
2024-02-21T20:23:51.426Z,8.71
2024-02-21T20:26:18.484Z,8.70
2024-02-21T20:28:44.945Z,8.65
2024-02-21T20:31:11.561Z,8.65
2024-02-21T20:33:38.059Z,8.56
2024-02-21T20:36:05.923Z,8.58
2024-02-21T20:38:32.545Z,8.52
2024-02-21T20:40:59.210Z,8.56
2024-02-21T20:43:25.684Z,8.55
2024-02-21T20:45:52.117Z,8.47
2024-02-21T20:48:18.671Z,8.57
2024-02-21T20:50:45.201Z,8.46
2024-02-21T20:53:11.858Z,8.47
2024-02-21T20:55:39.403Z,8.50
2024-02-21T20:58:05.858Z,8.47
2024-02-21T21:00:32.913Z,8.41
2024-02-21T21:03:00.135Z,8.41
2024-02-21T21:05:27.298Z,8.42
2024-02-21T21:07:53.853Z,8.44
2024-02-21T21:10:20.456Z,8.51
2024-02-21T21:12:46.983Z,8.48
2024-02-21T21:15:13.420Z,8.39
2024-02-21T21:17:40.213Z,8.40
2024-02-21T21:20:11.485Z,8.44
2024-02-21T21:22:40.721Z,8.46
2024-02-21T21:25:08.201Z,8.41
2024-02-21T21:27:34.686Z,8.52
2024-02-21T21:30:01.078Z,8.46
2024-02-21T21:32:28.411Z,8.41
2024-02-21T21:34:55.021Z,8.47
2024-02-21T21:37:23.962Z,8.39
2024-02-21T21:39:55.672Z,8.38
2024-02-21T21:42:23.470Z,8.32
2024-02-21T21:44:50.047Z,8.38
2024-02-21T21:47:18.027Z,8.47
2024-02-21T21:49:44.695Z,8.37
2024-02-21T21:52:12.741Z,8.32
2024-02-21T21:54:40.886Z,8.29
2024-02-21T21:57:07.519Z,8.36
2024-02-21T21:59:34.038Z,8.32
2024-02-21T22:02:02.053Z,8.41
2024-02-21T22:04:29.921Z,8.27
2024-02-21T22:06:56.531Z,8.23
2024-02-21T22:09:23.523Z,8.23
2024-02-21T22:11:49.993Z,8.30
2024-02-21T22:14:16.792Z,8.16
2024-02-21T22:16:43.436Z,8.19
2024-02-21T22:19:10.235Z,8.08
2024-02-21T22:21:36.790Z,8.13
2024-02-21T22:24:03.266Z,7.97
2024-02-21T22:26:29.698Z,7.95
2024-02-21T22:28:57.810Z,7.96
2024-02-21T22:31:24.334Z,7.94
2024-02-21T22:33:50.807Z,7.97
2024-02-21T22:36:20.838Z,7.97
2024-02-21T22:38:49.568Z,7.98
2024-02-21T22:41:16.100Z,7.89
2024-02-21T22:43:43.492Z,7.94
2024-02-21T22:46:11.998Z,7.82
2024-02-21T22:48:38.728Z,7.91
2024-02-21T22:51:05.397Z,7.91
2024-02-21T22:53:31.878Z,7.82
2024-02-21T22:55:58.393Z,7.85
2024-02-21T22:58:26.315Z,7.78
2024-02-21T23:00:53.951Z,7.83
2024-02-21T23:03:45.714Z,7.85
2024-02-21T23:06:12.376Z,7.73
2024-02-21T23:08:39.414Z,7.73
2024-02-21T23:11:06.563Z,7.80
2024-02-21T23:13:33.825Z,7.85
2024-02-21T23:16:00.541Z,7.84
2024-02-21T23:18:27.009Z,7.76
2024-02-21T23:20:54.475Z,7.81
2024-02-21T23:23:21.162Z,7.77
2024-02-21T23:25:47.794Z,7.74
2024-02-21T23:28:14.465Z,7.68
2024-02-21T23:30:40.983Z,7.66
2024-02-21T23:33:07.805Z,7.67
2024-02-21T23:35:37.832Z,7.71
2024-02-21T23:38:08.770Z,7.67
2024-02-21T23:40:35.393Z,7.64
2024-02-21T23:43:02.146Z,7.66
2024-02-21T23:45:28.679Z,7.66
2024-02-21T23:47:55.125Z,7.65
2024-02-21T23:50:22.140Z,7.56
2024-02-21T23:52:49.593Z,7.61
2024-02-21T23:55:16.129Z,7.76
2024-02-21T23:57:42.763Z,7.66
